createdAt,value
2023-01-19T00:02:55.680Z,0.98
2023-01-19T00:06:44.563Z,0.94
2023-01-19T00:10:27.450Z,0.89
2023-01-19T00:14:09.934Z,0.87
2023-01-19T00:17:44.879Z,0.81
2023-01-19T00:21:52.916Z,0.78
2023-01-19T00:25:54.345Z,0.79
2023-01-19T00:29:43.507Z,0.81
2023-01-19T00:33:37.551Z,0.79
2023-01-19T00:37:39.710Z,0.80
2023-01-19T00:41:41.622Z,0.85
2023-01-19T00:45:03.085Z,0.85
2023-01-19T00:49:19.053Z,0.87
2023-01-19T00:53:03.961Z,0.91
2023-01-19T00:56:25.150Z,0.91
2023-01-19T00:59:32.372Z,0.92
2023-01-19T01:03:06.828Z,0.98
2023-01-19T01:07:08.991Z,1.01
2023-01-19T01:10:36.953Z,0.99
2023-01-19T01:14:27.660Z,0.96
2023-01-19T01:18:29.959Z,0.87
2023-01-19T01:22:20.112Z,0.88
2023-01-19T01:25:26.746Z,0.86
2023-01-19T01:28:31.708Z,0.81
2023-01-19T01:31:33.706Z,0.78
2023-01-19T01:34:46.641Z,0.70
2023-01-19T01:38:38.680Z,0.65
2023-01-19T01:42:30.402Z,0.58
2023-01-19T01:46:32.580Z,0.54
2023-01-19T01:49:55.650Z,0.56
2023-01-19T01:54:00.303Z,0.53
2023-01-19T01:57:45.640Z,0.51
2023-01-19T02:01:37.758Z,0.51
2023-01-19T02:05:13.548Z,0.42
2023-01-19T02:09:14.025Z,0.41
2023-01-19T02:13:14.633Z,0.32
2023-01-19T02:17:17.377Z,0.28
2023-01-19T02:21:19.599Z,0.30
2023-01-19T02:24:25.518Z,0.34
2023-01-19T02:27:39.876Z,0.33
2023-01-19T02:31:17.568Z,0.36
2023-01-19T02:34:39.866Z,0.40
2023-01-19T02:38:23.462Z,0.42
2023-01-19T02:42:19.957Z,0.44
2023-01-19T02:46:22.248Z,0.48
2023-01-19T02:49:50.471Z,0.55
2023-01-19T02:53:52.654Z,0.60
2023-01-19T02:57:49.210Z,0.67
2023-01-19T03:01:31.660Z,0.64
2023-01-19T03:04:42.498Z,0.56
2023-01-19T03:08:31.259Z,0.56
2023-01-19T03:12:33.135Z,0.57
2023-01-19T03:16:52.256Z,0.57
2023-01-19T03:20:53.484Z,0.57
2023-01-19T03:24:37.024Z,0.54
2023-01-19T03:28:35.012Z,0.48
2023-01-19T03:32:35.706Z,0.30
2023-01-19T03:36:48.424Z,0.23
2023-01-19T03:40:59.685Z,0.26
2023-01-19T03:44:42.341Z,0.20
2023-01-19T03:48:43.986Z,0.10
2023-01-19T03:52:46.209Z,0.05
2023-01-19T03:57:03.682Z,-0.03
2023-01-19T04:00:55.454Z,-0.06
2023-01-19T04:04:56.795Z,-0.02
2023-01-19T04:08:11.907Z,-0.08
2023-01-19T04:11:57.658Z,-0.10
2023-01-19T04:15:48.832Z,-0.09
2023-01-19T04:19:42.961Z,-0.13
2023-01-19T04:23:49.229Z,-0.12
2023-01-19T04:27:50.211Z,0.13
2023-01-19T04:31:31.266Z,0.16
2023-01-19T04:35:33.608Z,-0.01
2023-01-19T04:39:06.348Z,-0.18
2023-01-19T04:43:08.532Z,-0.17
2023-01-19T04:47:02.750Z,-0.17
2023-01-19T04:50:58.184Z,-0.15
2023-01-19T04:54:43.083Z,-0.01
2023-01-19T04:57:53.900Z,0.01
2023-01-19T05:01:18.305Z,0.11
2023-01-19T05:05:13.424Z,0.18
2023-01-19T05:09:08.405Z,0.18
2023-01-19T05:13:09.405Z,0.13
2023-01-19T05:16:54.555Z,-0.15
2023-01-19T05:20:03.896Z,-0.41
2023-01-19T05:23:16.113Z,-0.49
2023-01-19T05:26:46.381Z,-0.50
2023-01-19T05:30:08.722Z,-0.36
2023-01-19T05:33:14.972Z,-0.23
2023-01-19T05:37:04.615Z,-0.23
2023-01-19T05:40:36.013Z,-0.17
2023-01-19T05:44:10.209Z,-0.17
2023-01-19T05:48:02.309Z,-0.17
2023-01-19T05:51:37.944Z,-0.11
2023-01-19T05:55:40.129Z,-0.18
2023-01-19T05:58:45.097Z,-0.18
2023-01-19T06:02:08.038Z,-0.17
2023-01-19T06:05:45.398Z,-0.17
2023-01-19T06:09:07.437Z,-0.25
2023-01-19T06:12:08.993Z,-0.27
2023-01-19T06:15:42.146Z,-0.25
2023-01-19T06:18:43.735Z,-0.33
2023-01-19T06:22:07.353Z,-0.38
2023-01-19T06:25:33.138Z,-0.43
2023-01-19T06:29:03.556Z,-0.43
2023-01-19T06:32:38.433Z,-0.47
2023-01-19T06:36:40.743Z,-0.58
2023-01-19T06:40:08.625Z,-0.68
2023-01-19T06:43:13.787Z,-0.76
2023-01-19T06:46:17.647Z,-0.75
2023-01-19T06:50:07.018Z,-0.74
2023-01-19T06:53:21.774Z,-0.79
2023-01-19T06:56:28.481Z,-0.79
2023-01-19T06:59:42.194Z,-0.77
2023-01-19T07:02:54.908Z,-0.77
2023-01-19T07:06:35.925Z,-0.78
2023-01-19T07:10:16.134Z,-0.80
2023-01-19T07:13:50.791Z,-0.75
2023-01-19T07:17:43.659Z,-0.73
2023-01-19T07:21:02.355Z,-0.73
2023-01-19T07:24:34.981Z,-0.75
2023-01-19T07:28:03.087Z,-0.76
2023-01-19T07:31:48.048Z,-0.74
2023-01-19T07:35:04.029Z,-0.73
2023-01-19T07:38:57.141Z,-0.70
2023-01-19T07:42:51.663Z,-0.69
2023-01-19T07:46:00.817Z,-0.68
2023-01-19T07:49:07.951Z,-0.71
2023-01-19T07:52:55.510Z,-0.75
2023-01-19T07:56:43.128Z,-0.88
2023-01-19T08:00:35.455Z,-0.88
2023-01-19T08:04:11.394Z,-0.89
2023-01-19T08:08:05.414Z,-0.88
2023-01-19T08:11:37.906Z,-0.92
2023-01-19T08:14:51.399Z,-0.91
2023-01-19T08:18:15.144Z,-0.90
2023-01-19T08:22:00.066Z,-0.84
2023-01-19T08:25:19.670Z,-0.84
2023-01-19T08:28:22.094Z,-0.84
2023-01-19T08:32:04.446Z,-0.84
2023-01-19T08:35:34.351Z,-0.82
2023-01-19T08:38:42.912Z,-0.73
2023-01-19T08:42:44.445Z,-0.70
2023-01-19T08:46:25.163Z,-0.70
2023-01-19T08:50:28.409Z,-0.72
2023-01-19T08:54:23.682Z,-0.66
2023-01-19T08:58:14.220Z,-0.70
2023-01-19T09:02:16.543Z,-0.69
2023-01-19T09:06:00.878Z,-0.64
2023-01-19T09:09:44.322Z,-0.54
2023-01-19T09:13:16.605Z,-0.53
2023-01-19T09:17:01.585Z,-0.49
2023-01-19T09:20:49.384Z,-0.49
2023-01-19T09:24:34.443Z,-0.46
2023-01-19T09:28:27.091Z,-0.40
2023-01-19T09:32:04.978Z,-0.39
2023-01-19T09:35:28.485Z,-0.45
2023-01-19T09:39:41.619Z,-0.45
2023-01-19T09:48:10.801Z,-0.43
2023-01-19T09:52:15.758Z,-0.43
2023-01-19T09:56:11.095Z,-0.40
2023-01-19T10:00:07.401Z,-0.32
2023-01-19T10:03:54.733Z,-0.30
2023-01-19T10:07:52.499Z,-0.29
2023-01-19T10:11:52.966Z,-0.21
2023-01-19T10:15:54.797Z,-0.28
2023-01-19T10:19:37.765Z,-0.30
2023-01-19T10:23:31.613Z,-0.38
2023-01-19T10:27:22.355Z,-0.39
2023-01-19T10:31:17.539Z,-0.35
2023-01-19T10:35:19.818Z,-0.36
2023-01-19T10:39:22.007Z,-0.24
2023-01-19T10:43:24.308Z,-0.10
2023-01-19T10:47:10.676Z,-0.00
2023-01-19T10:51:11.813Z,0.07
2023-01-19T10:55:14.088Z,0.14
2023-01-19T10:59:23.991Z,0.25
2023-01-19T11:03:12.627Z,0.24
2023-01-19T11:07:08.923Z,0.31
2023-01-19T11:11:17.298Z,0.35
2023-01-19T11:15:09.299Z,0.33
2023-01-19T11:19:17.429Z,0.40
2023-01-19T11:23:20.055Z,0.53
2023-01-19T11:27:16.356Z,0.64
2023-01-19T11:31:19.684Z,0.85
2023-01-19T11:35:16.456Z,0.91
2023-01-19T11:39:24.611Z,0.97
2023-01-19T11:43:15.868Z,1.07
2023-01-19T11:47:18.768Z,1.17
2023-01-19T11:51:21.740Z,1.26
2023-01-19T11:55:07.099Z,1.30
2023-01-19T11:59:04.595Z,1.38
2023-01-19T12:03:22.685Z,1.54
2023-01-19T12:07:25.444Z,1.70
2023-01-19T12:11:27.672Z,1.77
2023-01-19T12:15:43.232Z,1.79
2023-01-19T12:19:47.755Z,1.67
2023-01-19T12:23:58.795Z,1.82
2023-01-19T12:28:06.550Z,1.97
2023-01-19T12:32:08.807Z,2.09
2023-01-19T12:36:08.492Z,2.24
2023-01-19T12:40:16.284Z,2.38
2023-01-19T12:44:12.573Z,2.53
2023-01-19T12:48:08.025Z,2.67
2023-01-19T12:52:06.408Z,2.75
2023-01-19T12:56:17.580Z,2.78
2023-01-19T13:00:15.379Z,2.82
2023-01-19T13:04:16.422Z,2.83
2023-01-19T13:08:17.949Z,2.85
2023-01-19T13:12:13.007Z,2.71
2023-01-19T13:16:33.996Z,2.69
2023-01-19T13:20:36.356Z,2.56
2023-01-19T13:24:49.917Z,2.36
2023-01-19T13:28:54.689Z,2.08
2023-01-19T13:32:39.633Z,1.87
2023-01-19T13:36:42.019Z,1.69
2023-01-19T13:40:37.686Z,1.48
2023-01-19T13:44:23.134Z,1.42
2023-01-19T13:48:24.469Z,1.39
2023-01-19T13:52:27.811Z,1.38
2023-01-19T13:56:28.708Z,1.37
2023-01-19T14:00:31.518Z,1.29
2023-01-19T14:04:19.329Z,1.16
2023-01-19T14:08:21.701Z,1.10
2023-01-19T14:12:29.312Z,1.07
2023-01-19T14:16:32.044Z,1.06
2023-01-19T14:20:40.540Z,0.91
2023-01-19T14:24:45.856Z,0.80
2023-01-19T14:28:50.269Z,0.86
2023-01-19T14:32:31.840Z,0.75
2023-01-19T14:36:27.198Z,0.67
2023-01-19T14:40:47.916Z,0.67
2023-01-19T14:44:48.968Z,0.79
2023-01-19T14:48:54.857Z,0.87
2023-01-19T14:52:56.921Z,0.86
2023-01-19T14:57:05.209Z,0.81
2023-01-19T15:01:07.454Z,0.81
2023-01-19T15:05:15.384Z,0.79
2023-01-19T15:08:29.664Z,0.75
2023-01-19T15:11:35.239Z,0.67
2023-01-19T15:15:37.465Z,0.64
2023-01-19T15:19:37.213Z,0.63
2023-01-19T15:23:15.234Z,0.64
2023-01-19T15:27:08.472Z,0.63
2023-01-19T15:31:08.051Z,0.62
2023-01-19T15:35:04.450Z,0.53
2023-01-19T15:38:56.857Z,0.50
2023-01-19T15:42:34.440Z,0.47
2023-01-19T15:46:28.291Z,0.48
2023-01-19T15:50:19.187Z,0.43
2023-01-19T15:54:40.191Z,0.35
2023-01-19T15:58:40.750Z,0.36
2023-01-19T16:02:37.569Z,0.39
2023-01-19T16:06:41.404Z,0.38
2023-01-19T16:10:46.641Z,0.40
2023-01-19T16:14:40.388Z,0.41
2023-01-19T16:18:43.125Z,0.39
2023-01-19T16:29:04.671Z,0.36
2023-01-19T16:55:46.846Z,0.92
2023-01-19T16:59:54.842Z,0.84
2023-01-19T17:03:39.825Z,0.76
2023-01-19T17:07:36.148Z,0.70
2023-01-19T17:11:38.089Z,0.63
2023-01-19T17:15:33.586Z,0.53
2023-01-19T17:24:01.485Z,0.42
2023-01-19T17:28:05.226Z,0.38
2023-01-19T17:31:54.739Z,0.30
2023-01-19T17:35:50.090Z,0.28
2023-01-19T17:39:36.401Z,0.23
2023-01-19T17:43:29.729Z,0.18
2023-01-19T17:47:27.038Z,0.19
2023-01-19T17:51:31.211Z,0.12
2023-01-19T17:55:34.942Z,0.10
2023-01-19T17:59:14.149Z,0.11
2023-01-19T18:07:32.592Z,0.10
2023-01-19T18:11:29.094Z,0.01
2023-01-19T18:15:30.375Z,-0.09
2023-01-19T18:19:24.106Z,-0.14
2023-01-19T18:23:27.828Z,-0.20
2023-01-19T18:27:12.806Z,-0.22
2023-01-19T18:31:16.494Z,-0.27
2023-01-19T18:35:20.231Z,-0.27
2023-01-19T18:39:09.458Z,-0.23
2023-01-19T18:43:19.085Z,-0.20
2023-01-19T18:47:21.568Z,-0.24
2023-01-19T18:51:24.691Z,-0.27
2023-01-19T18:55:20.022Z,-0.28
2023-01-19T18:59:18.422Z,-0.24
2023-01-19T19:03:20.609Z,-0.22
2023-01-19T19:07:33.044Z,-0.21
2023-01-19T19:11:26.865Z,-0.24
2023-01-19T19:15:21.703Z,-0.25
2023-01-19T19:19:13.728Z,-0.21
2023-01-19T19:23:10.177Z,-0.25
2023-01-19T19:27:14.481Z,-0.30
2023-01-19T19:31:01.286Z,-0.40
2023-01-19T19:35:06.282Z,-0.41
2023-01-19T19:39:10.293Z,-0.39
2023-01-19T19:43:14.009Z,-0.39
2023-01-19T19:47:18.134Z,-0.38
2023-01-19T19:51:17.129Z,-0.42
2023-01-19T19:55:22.018Z,-0.44
2023-01-19T19:59:26.343Z,-0.52
2023-01-19T20:03:15.323Z,-0.51
2023-01-19T20:07:18.099Z,-0.50
2023-01-19T20:11:10.831Z,-0.41
2023-01-19T20:15:07.245Z,-0.39
